General Aviation Weather

Text Reports

Enter one or more of the following location identifiers separated by a space:

Zip Code, Four-Character ICAO or Three-Character IATA airport codes.

METAR - Aviation Routine Weather Report
KDNV - Danville, Illinois
Updated at 5:15 PM GMT on March 04, 2015 (11:15 AM CST):
METAR KDNV 041715Z AUTO 32014KT 10SM SCT070 SCT080 BKN110 M08/M11 A3011 RMK AO2 T10791112
TAF - Terminal Area Forecast
KDNV - Danville, Illinois
Updated at 5:15 PM GMT on March 04, 2015 (11:15 AM CST):
No TAF is currently available for this location.
Decoded:
No decoded TAF is available.
PIREP - Pilot Weather Report
KDNV - Danville, Illinois
Updated at 5:15 PM GMT on March 04, 2015 (11:15 AM CST):
No PIREP is currently available for this location.
AIRMET - Airmens Meteorological Information
KDNV - Danville, Illinois
Updated at 5:15 PM GMT on March 04, 2015 (11:15 AM CST):
No AIRMET is currently available for this location.
SIGMET - Significant Meteorological Information
KDNV - Danville, Illinois
Updated at 5:15 PM GMT on March 04, 2015 (11:15 AM CST):
No SIGMET is currently available for this location.
NOTAM - Notice to Airmen
KDNV - Danville, Illinois
Updated at 5:15 PM GMT on March 04, 2015 (11:15 AM CST):
No NOTAM is currently available for this location.
Forecast Area
KDNV - Danville, Illinois
Updated at 5:15 PM GMT on March 04, 2015 (11:15 AM CST):
No NOTAM is currently available for this location.
Aviation Weather Maps